createdAt,value
2023-05-19T00:01:49.151Z,2.40
2023-05-19T00:04:19.923Z,1.83
2023-05-19T00:06:52.057Z,2.23
2023-05-19T00:09:20.263Z,1.60
2023-05-19T00:11:48.656Z,2.20
2023-05-19T00:14:17.080Z,1.83
2023-05-19T00:16:45.376Z,2.50
2023-05-19T00:19:13.169Z,1.85
2023-05-19T00:21:41.304Z,1.90
2023-05-19T00:24:10.610Z,2.27
2023-05-19T00:26:38.366Z,2.00
2023-05-19T00:29:06.486Z,2.00
2023-05-19T00:31:34.897Z,2.10
2023-05-19T00:34:02.901Z,1.90
2023-05-19T00:36:31.010Z,1.70
2023-05-19T00:38:58.740Z,1.83
2023-05-19T00:41:28.013Z,2.00
2023-05-19T00:43:56.412Z,2.40
2023-05-19T00:46:24.325Z,1.70
2023-05-19T00:48:52.087Z,2.13
2023-05-19T00:51:20.166Z,1.60
2023-05-19T00:53:51.062Z,1.80
2023-05-19T00:56:19.711Z,1.70
2023-05-19T00:58:51.602Z,2.63
2023-05-19T01:01:21.610Z,1.50
2023-05-19T01:03:49.904Z,1.90
2023-05-19T01:06:19.059Z,1.57
2023-05-19T01:08:47.249Z,2.07
2023-05-19T01:11:15.032Z,2.00
2023-05-19T01:13:42.984Z,1.77
2023-05-19T01:16:19.150Z,2.10
2023-05-19T01:18:57.682Z,1.97
2023-05-19T01:21:54.935Z,1.90
2023-05-19T01:24:46.814Z,1.60
2023-05-19T01:27:37.035Z,1.63
2023-05-19T01:30:32.139Z,1.90
2023-05-19T01:33:02.447Z,1.83
2023-05-19T01:35:32.951Z,1.83
2023-05-19T01:38:02.071Z,1.60
2023-05-19T01:40:31.647Z,2.30
2023-05-19T01:43:02.340Z,1.93
2023-05-19T01:45:34.188Z,1.90
2023-05-19T01:48:04.844Z,2.03
2023-05-19T01:50:33.683Z,1.90
2023-05-19T01:53:02.292Z,1.53
2023-05-19T01:55:30.286Z,2.10
2023-05-19T01:58:07.584Z,1.60
2023-05-19T02:00:48.887Z,1.47
2023-05-19T02:03:27.843Z,1.83
2023-05-19T02:06:03.172Z,1.80
2023-05-19T02:08:34.478Z,1.70
2023-05-19T02:11:07.177Z,1.73
2023-05-19T02:13:38.476Z,1.80
2023-05-19T02:16:09.305Z,2.43
2023-05-19T02:18:37.394Z,1.80
2023-05-19T02:21:05.428Z,1.40
2023-05-19T02:23:34.239Z,1.53
2023-05-19T02:26:02.469Z,1.97
2023-05-19T02:28:30.227Z,1.93
2023-05-19T02:30:57.966Z,2.00
2023-05-19T02:33:27.508Z,1.67
2023-05-19T02:35:56.219Z,2.17
2023-05-19T02:38:24.113Z,1.60
2023-05-19T02:40:52.591Z,1.90
2023-05-19T02:43:20.677Z,2.20
2023-05-19T02:45:48.380Z,2.43
2023-05-19T02:48:16.136Z,1.70
2023-05-19T02:50:45.267Z,2.13
2023-05-19T02:53:13.090Z,2.10
2023-05-19T02:55:40.846Z,2.00
2023-05-19T02:58:08.653Z,1.40
2023-05-19T03:00:36.435Z,1.77
2023-05-19T03:03:04.537Z,2.40
2023-05-19T03:05:32.917Z,1.93
2023-05-19T03:08:02.132Z,2.10
2023-05-19T03:10:29.978Z,1.90
2023-05-19T03:12:57.816Z,1.33
2023-05-19T03:15:25.802Z,1.60
2023-05-19T03:17:53.832Z,2.10
2023-05-19T03:20:22.073Z,2.00
2023-05-19T03:22:49.896Z,2.00
2023-05-19T03:25:20.070Z,1.73
2023-05-19T03:27:47.849Z,1.93
2023-05-19T03:30:15.876Z,2.07
2023-05-19T03:32:43.819Z,1.97
2023-05-19T03:35:11.741Z,1.70
2023-05-19T03:37:39.487Z,1.73
2023-05-19T03:40:09.199Z,1.70
2023-05-19T03:42:38.731Z,1.80
2023-05-19T03:45:07.501Z,1.53
2023-05-19T03:47:35.331Z,1.97
2023-05-19T03:50:03.264Z,1.87
2023-05-19T03:52:31.055Z,2.27
2023-05-19T03:54:58.831Z,1.60
2023-05-19T03:57:26.927Z,1.83
2023-05-19T03:59:56.064Z,2.07
2023-05-19T04:02:23.992Z,1.90
2023-05-19T04:04:52.429Z,2.10
2023-05-19T04:07:20.492Z,1.70
2023-05-19T04:09:48.672Z,2.07
2023-05-19T04:12:16.520Z,2.00
2023-05-19T04:14:44.292Z,1.53
2023-05-19T04:17:13.490Z,1.87
2023-05-19T04:19:41.384Z,1.50
2023-05-19T04:22:09.172Z,1.93
2023-05-19T04:24:37.102Z,1.87
2023-05-19T04:27:06.848Z,1.60
2023-05-19T04:29:35.610Z,1.80
2023-05-19T04:32:06.798Z,2.00
2023-05-19T04:34:36.332Z,1.83
2023-05-19T04:37:04.320Z,1.35
2023-05-19T04:39:32.070Z,1.85
2023-05-19T04:41:59.886Z,2.00
2023-05-19T04:44:27.742Z,1.60
2023-05-19T04:46:57.844Z,1.60
2023-05-19T04:49:28.564Z,1.73
2023-05-19T04:51:57.865Z,2.03
2023-05-19T04:54:26.410Z,1.58
2023-05-19T04:56:54.186Z,1.67
2023-05-19T04:59:23.386Z,1.60
2023-05-19T05:01:51.202Z,1.20
2023-05-19T05:04:19.102Z,1.55
2023-05-19T05:06:48.024Z,1.55
2023-05-19T05:09:18.059Z,1.80
2023-05-19T05:11:46.388Z,1.58
2023-05-19T05:14:15.057Z,1.30
2023-05-19T05:16:43.607Z,1.42
2023-05-19T05:19:12.102Z,1.48
2023-05-19T05:21:41.460Z,1.77
2023-05-19T05:24:10.864Z,2.17
2023-05-19T05:26:40.927Z,1.38
2023-05-19T05:29:11.086Z,1.67
2023-05-19T05:31:38.939Z,1.50
2023-05-19T05:34:06.961Z,1.30
2023-05-19T05:36:35.949Z,1.63
2023-05-19T05:39:03.841Z,2.05
2023-05-19T05:41:35.523Z,1.63
2023-05-19T05:44:05.412Z,1.60
2023-05-19T05:46:33.696Z,1.58
2023-05-19T05:49:02.151Z,1.55
2023-05-19T05:51:31.159Z,1.42
2023-05-19T05:54:01.133Z,1.45
2023-05-19T05:56:29.559Z,1.17
2023-05-19T05:58:57.782Z,1.63
2023-05-19T06:01:27.006Z,1.20
2023-05-19T06:03:54.923Z,1.40
2023-05-19T06:06:22.781Z,0.80
2023-05-19T06:08:50.714Z,1.17
2023-05-19T06:11:19.549Z,1.30
2023-05-19T06:13:47.630Z,1.63
2023-05-19T06:16:15.633Z,1.02
2023-05-19T06:18:45.076Z,1.15
2023-05-19T06:21:13.291Z,1.35
2023-05-19T06:23:41.225Z,1.40
2023-05-19T06:26:09.138Z,1.25
2023-05-19T06:28:37.041Z,1.10
2023-05-19T06:31:05.366Z,1.40
2023-05-19T06:33:33.153Z,1.25
2023-05-19T06:36:02.414Z,1.23
2023-05-19T06:38:31.542Z,1.25
2023-05-19T06:40:59.314Z,1.20
2023-05-19T06:43:27.068Z,1.30
2023-05-19T06:45:54.809Z,1.67
2023-05-19T06:48:22.678Z,1.20
2023-05-19T06:50:50.638Z,1.35
2023-05-19T06:53:21.070Z,1.45
2023-05-19T06:55:58.619Z,1.25
2023-05-19T06:58:27.876Z,1.60
2023-05-19T07:00:55.757Z,1.33
2023-05-19T07:03:23.639Z,1.42
2023-05-19T07:05:51.650Z,1.05
2023-05-19T07:08:20.807Z,1.52
2023-05-19T07:10:48.762Z,1.20
2023-05-19T07:13:16.812Z,1.17
2023-05-19T07:15:44.775Z,1.17
2023-05-19T07:18:12.569Z,1.20
2023-05-19T07:20:40.378Z,1.00
2023-05-19T07:23:08.181Z,1.40
2023-05-19T07:25:37.282Z,1.00
2023-05-19T07:28:05.418Z,1.20
2023-05-19T07:30:33.455Z,1.00
2023-05-19T07:33:01.554Z,1.10
2023-05-19T07:35:29.384Z,1.48
2023-05-19T07:37:57.221Z,1.30
2023-05-19T07:40:25.067Z,1.50
2023-05-19T07:42:54.376Z,1.35
2023-05-19T07:45:22.366Z,0.90
2023-05-19T07:47:50.260Z,1.10
2023-05-19T07:50:18.221Z,0.80
2023-05-19T07:52:46.169Z,1.10
2023-05-19T07:55:14.742Z,1.27
2023-05-19T07:57:42.572Z,1.13
2023-05-19T08:00:15.993Z,1.10
2023-05-19T08:02:44.112Z,0.85
2023-05-19T08:05:12.058Z,0.90
2023-05-19T08:07:39.868Z,0.93
2023-05-19T08:10:08.697Z,0.75
2023-05-19T08:12:36.480Z,0.93
2023-05-19T08:15:04.420Z,0.88
2023-05-19T08:17:33.586Z,0.82
2023-05-19T08:20:01.457Z,1.15
2023-05-19T08:22:29.275Z,1.00
2023-05-19T08:24:57.051Z,1.30
2023-05-19T08:27:25.042Z,0.80
2023-05-19T08:29:52.972Z,1.13
2023-05-19T08:32:22.787Z,0.90
2023-05-19T08:34:53.331Z,0.80
2023-05-19T08:37:21.137Z,0.90
2023-05-19T08:39:49.019Z,0.90
2023-05-19T08:42:17.050Z,0.77
2023-05-19T08:44:44.924Z,1.33
2023-05-19T08:47:13.898Z,0.80
2023-05-19T08:49:45.329Z,1.35
2023-05-19T08:52:25.377Z,0.75
2023-05-19T08:54:57.705Z,0.70
2023-05-19T08:57:26.629Z,1.15
2023-05-19T08:59:55.885Z,1.00
2023-05-19T09:02:24.360Z,0.90
2023-05-19T09:04:53.003Z,0.95
2023-05-19T09:07:25.490Z,0.68
2023-05-19T09:09:53.350Z,0.70
2023-05-19T09:12:21.698Z,0.70
2023-05-19T09:14:49.829Z,0.95
2023-05-19T09:17:18.952Z,0.70
2023-05-19T09:19:48.127Z,0.60
2023-05-19T09:22:19.066Z,0.75
2023-05-19T09:24:48.606Z,0.90
2023-05-19T09:27:22.184Z,0.68
2023-05-19T09:29:50.303Z,1.25
2023-05-19T09:32:26.678Z,1.00
2023-05-19T09:34:55.353Z,0.70
2023-05-19T09:37:25.224Z,0.73
2023-05-19T09:39:54.460Z,0.73
2023-05-19T09:42:26.296Z,0.60
2023-05-19T09:45:01.721Z,0.77
2023-05-19T09:47:30.651Z,0.77
2023-05-19T09:49:58.543Z,0.93
2023-05-19T09:52:27.350Z,0.95
2023-05-19T09:54:57.885Z,0.80
2023-05-19T09:57:28.235Z,0.98
2023-05-19T09:59:57.950Z,0.80
2023-05-19T10:02:27.178Z,0.77
2023-05-19T10:04:56.226Z,0.50
2023-05-19T10:07:25.244Z,1.08
2023-05-19T10:09:56.633Z,0.88
2023-05-19T10:12:28.017Z,0.88
2023-05-19T10:14:56.639Z,0.63
2023-05-19T10:17:27.207Z,0.80
2023-05-19T10:19:55.933Z,0.80
2023-05-19T10:22:23.774Z,0.70
2023-05-19T10:24:51.712Z,0.70
2023-05-19T10:27:20.299Z,0.85
2023-05-19T10:29:52.751Z,0.60
2023-05-19T10:32:25.861Z,0.75
2023-05-19T10:35:18.178Z,0.80
2023-05-19T10:37:52.542Z,0.90
2023-05-19T10:40:27.636Z,1.10
2023-05-19T10:43:11.727Z,0.77
2023-05-19T10:45:48.679Z,0.60
2023-05-19T10:48:17.599Z,0.50
2023-05-19T10:50:46.732Z,0.60
2023-05-19T10:53:20.936Z,0.80
2023-05-19T10:55:53.185Z,0.60
2023-05-19T10:58:52.054Z,0.80
2023-05-19T11:01:22.197Z,0.93
2023-05-19T11:03:52.358Z,0.70
2023-05-19T11:06:28.048Z,0.77
2023-05-19T11:08:58.614Z,1.50
2023-05-19T11:11:26.540Z,1.00
2023-05-19T11:13:56.288Z,0.70
2023-05-19T11:16:33.481Z,0.77
2023-05-19T11:19:01.902Z,0.60
2023-05-19T11:21:43.649Z,0.98
2023-05-19T11:24:11.721Z,1.05
2023-05-19T11:26:43.529Z,1.00
2023-05-19T11:29:12.243Z,0.80
2023-05-19T11:31:44.333Z,0.75
2023-05-19T11:34:13.831Z,0.88
2023-05-19T11:36:44.078Z,0.75
2023-05-19T11:39:13.508Z,0.70
2023-05-19T11:41:41.638Z,0.70
2023-05-19T11:44:11.961Z,0.70
2023-05-19T11:46:41.527Z,0.80
2023-05-19T11:49:10.574Z,1.02
2023-05-19T11:51:38.568Z,1.02
2023-05-19T11:54:06.414Z,0.60
2023-05-19T11:56:36.713Z,0.88
2023-05-19T11:59:04.618Z,0.90
2023-05-19T12:01:32.625Z,0.80
2023-05-19T12:04:02.088Z,0.60
2023-05-19T12:06:31.078Z,0.90
2023-05-19T12:08:59.212Z,1.00
2023-05-19T12:11:29.471Z,1.08
2023-05-19T12:14:00.126Z,1.10
2023-05-19T12:16:35.431Z,1.10
2023-05-19T12:19:06.648Z,1.05
2023-05-19T12:21:34.637Z,1.00
2023-05-19T12:24:03.072Z,1.00
2023-05-19T12:26:30.964Z,1.10
2023-05-19T12:28:59.848Z,1.00
2023-05-19T12:31:27.837Z,1.10
2023-05-19T12:33:57.108Z,0.65
2023-05-19T12:36:27.120Z,1.20
2023-05-19T12:38:57.714Z,0.93
2023-05-19T12:41:27.289Z,1.00
2023-05-19T12:43:55.869Z,1.45
2023-05-19T12:46:23.822Z,0.90
2023-05-19T12:48:51.733Z,0.70
2023-05-19T12:51:20.196Z,0.90
2023-05-19T12:53:51.404Z,1.20
2023-05-19T12:56:19.325Z,1.02
2023-05-19T12:58:47.147Z,1.00
2023-05-19T13:01:19.613Z,0.90
2023-05-19T13:03:47.691Z,0.90
2023-05-19T13:06:15.689Z,1.00
2023-05-19T13:08:43.628Z,1.15
2023-05-19T13:11:12.870Z,0.90
2023-05-19T13:13:40.791Z,1.00
2023-05-19T13:16:08.885Z,0.70
2023-05-19T13:18:38.340Z,1.00
2023-05-19T13:21:06.782Z,0.85
2023-05-19T13:23:35.041Z,1.00
2023-05-19T13:26:04.983Z,0.80
2023-05-19T13:28:34.849Z,0.85
2023-05-19T13:31:02.974Z,0.98
2023-05-19T13:33:30.850Z,1.00
2023-05-19T13:35:58.813Z,0.82
2023-05-19T13:38:26.804Z,1.33
2023-05-19T13:40:54.731Z,1.00
2023-05-19T13:43:22.670Z,0.85
2023-05-19T13:45:52.062Z,0.65
2023-05-19T13:48:20.106Z,0.90
2023-05-19T13:50:48.056Z,0.90
2023-05-19T13:53:15.871Z,0.90
2023-05-19T13:55:43.681Z,1.17
2023-05-19T13:58:12.559Z,0.82
2023-05-19T14:00:40.887Z,1.17
2023-05-19T14:03:10.472Z,1.00
2023-05-19T14:05:38.582Z,0.60
2023-05-19T14:08:06.825Z,0.95
2023-05-19T14:10:34.858Z,0.90
2023-05-19T14:13:29.707Z,0.88
2023-05-19T14:15:51.997Z,1.17
2023-05-19T14:18:21.520Z,0.98
2023-05-19T14:20:49.461Z,0.98
2023-05-19T14:23:17.337Z,0.88
2023-05-19T14:25:45.349Z,0.80
2023-05-19T14:28:13.195Z,0.82
2023-05-19T14:30:41.476Z,0.90
2023-05-19T14:33:09.674Z,0.90
2023-05-19T14:35:38.987Z,0.73
2023-05-19T14:38:06.854Z,0.77
2023-05-19T14:40:35.150Z,1.05
2023-05-19T14:43:03.265Z,1.23
2023-05-19T14:45:31.120Z,0.80
2023-05-19T14:47:58.968Z,0.95
2023-05-19T14:50:28.550Z,0.88
2023-05-19T14:52:58.490Z,1.23
2023-05-19T14:55:26.466Z,1.23
2023-05-19T14:57:54.352Z,0.70
2023-05-19T15:00:22.272Z,0.93
2023-05-19T15:02:50.205Z,1.10
2023-05-19T15:05:18.220Z,1.00
2023-05-19T15:07:46.109Z,1.17
2023-05-19T15:10:16.500Z,0.90
2023-05-19T15:12:44.420Z,1.25
2023-05-19T15:15:12.752Z,1.00
2023-05-19T15:17:41.116Z,1.20
2023-05-19T15:20:09.853Z,1.10
2023-05-19T15:22:37.969Z,0.77
2023-05-19T15:25:06.492Z,0.98
2023-05-19T15:27:37.433Z,0.90
2023-05-19T15:30:06.664Z,0.98
2023-05-19T15:32:34.805Z,0.88
2023-05-19T15:35:02.693Z,0.80
2023-05-19T15:37:30.603Z,0.95
2023-05-19T15:39:58.570Z,1.10
2023-05-19T15:42:26.567Z,0.88
2023-05-19T15:44:56.029Z,1.02
2023-05-19T15:47:24.353Z,1.00
2023-05-19T15:49:52.154Z,1.10
2023-05-19T15:52:20.122Z,1.00
2023-05-19T15:54:48.893Z,0.90
2023-05-19T15:57:16.799Z,1.08
2023-05-19T15:59:44.655Z,1.00
2023-05-19T16:02:14.091Z,1.08
2023-05-19T16:04:42.031Z,1.25
2023-05-19T16:07:09.856Z,0.98
2023-05-19T16:09:37.769Z,1.05
2023-05-19T16:12:06.091Z,0.70
2023-05-19T16:14:36.460Z,0.80
2023-05-19T16:17:04.695Z,0.95
2023-05-19T16:19:34.301Z,0.70
2023-05-19T16:22:02.254Z,0.80
2023-05-19T16:24:30.087Z,0.80
2023-05-19T16:26:58.029Z,0.90
2023-05-19T16:29:25.969Z,0.88
2023-05-19T16:31:54.101Z,0.88
2023-05-19T16:34:22.061Z,0.80
2023-05-19T16:36:51.213Z,1.05
2023-05-19T16:39:19.370Z,0.88
2023-05-19T16:41:47.272Z,0.90
2023-05-19T16:44:15.120Z,1.05
2023-05-19T16:46:43.482Z,0.82
2023-05-19T16:49:11.813Z,1.20
2023-05-19T16:51:39.666Z,0.80
2023-05-19T16:54:08.908Z,1.13
2023-05-19T16:56:36.767Z,1.17
2023-05-19T16:59:04.746Z,1.15
2023-05-19T17:01:32.733Z,0.80
2023-05-19T17:04:00.673Z,0.70
2023-05-19T17:06:28.545Z,0.85
2023-05-19T17:08:56.544Z,0.90
2023-05-19T17:11:26.712Z,0.70
2023-05-19T17:13:54.700Z,0.90
2023-05-19T17:16:23.489Z,0.82
2023-05-19T17:18:51.551Z,0.82
2023-05-19T17:21:19.441Z,1.17
2023-05-19T17:23:47.306Z,1.05
2023-05-19T17:26:15.877Z,0.88
2023-05-19T17:28:45.220Z,0.80
2023-05-19T17:31:13.910Z,1.02
2023-05-19T17:33:42.228Z,0.85
2023-05-19T17:36:10.138Z,1.10
2023-05-19T17:38:40.296Z,1.30
2023-05-19T17:41:10.152Z,1.10
2023-05-19T17:43:38.386Z,0.90
2023-05-19T17:46:08.378Z,0.90
2023-05-19T17:48:37.298Z,1.02
2023-05-19T17:51:07.080Z,0.80
2023-05-19T17:53:36.498Z,1.00
2023-05-19T17:56:07.368Z,1.20
2023-05-19T17:58:36.121Z,1.20
2023-05-19T18:01:04.460Z,1.23
2023-05-19T18:03:34.794Z,1.20
2023-05-19T18:06:03.188Z,1.02
2023-05-19T18:08:32.228Z,0.90
2023-05-19T18:11:01.309Z,1.00
2023-05-19T18:13:29.247Z,0.90
2023-05-19T18:15:57.742Z,0.80
2023-05-19T18:18:25.726Z,0.98
2023-05-19T18:20:55.065Z,1.13
2023-05-19T18:23:22.954Z,1.38
2023-05-19T18:25:51.756Z,1.02
2023-05-19T18:28:19.658Z,1.00
2023-05-19T18:30:47.589Z,1.27
2023-05-19T18:33:15.447Z,1.25
2023-05-19T18:35:43.308Z,1.10
2023-05-19T18:38:12.586Z,1.10
2023-05-19T18:40:44.226Z,1.30
2023-05-19T18:43:12.303Z,1.48
2023-05-19T18:45:40.739Z,1.25
2023-05-19T18:48:08.907Z,1.13
2023-05-19T18:50:37.124Z,1.60
2023-05-19T18:53:04.989Z,1.30
2023-05-19T18:55:35.428Z,1.30
2023-05-19T18:58:04.424Z,1.08
2023-05-19T19:00:32.872Z,1.30
2023-05-19T19:03:01.770Z,1.38
2023-05-19T19:05:29.910Z,1.30
2023-05-19T19:07:58.007Z,1.30
2023-05-19T19:10:26.014Z,1.52
2023-05-19T19:12:58.002Z,1.60
2023-05-19T19:15:26.052Z,1.48
2023-05-19T19:17:54.115Z,1.55
2023-05-19T19:20:22.063Z,1.38
2023-05-19T19:22:52.993Z,1.45
2023-05-19T19:25:23.114Z,1.58
2023-05-19T19:27:51.613Z,1.38
2023-05-19T19:30:20.936Z,1.70
2023-05-19T19:32:48.938Z,1.70
2023-05-19T19:35:17.003Z,1.45
2023-05-19T19:37:46.830Z,1.55
2023-05-19T19:40:15.275Z,1.50
2023-05-19T19:42:43.262Z,1.42
2023-05-19T19:45:14.766Z,1.60
2023-05-19T19:47:45.141Z,1.75
2023-05-19T19:50:13.237Z,1.40
2023-05-19T19:52:41.130Z,1.55
2023-05-19T19:55:10.589Z,1.83
2023-05-19T19:57:38.569Z,1.75
2023-05-19T20:00:09.076Z,1.58
2023-05-19T20:02:45.628Z,1.80
2023-05-19T20:05:21.245Z,1.73
2023-05-19T20:07:49.270Z,1.52
2023-05-19T20:10:17.120Z,2.15
2023-05-19T20:12:47.128Z,1.60
2023-05-19T20:15:15.326Z,1.60
2023-05-19T20:17:43.237Z,1.70
2023-05-19T20:20:12.871Z,1.60
2023-05-19T20:22:44.320Z,1.63
2023-05-19T20:25:12.147Z,1.80
2023-05-19T20:27:39.956Z,1.83
2023-05-19T20:30:08.998Z,1.65
2023-05-19T20:32:37.032Z,1.98
2023-05-19T20:35:05.119Z,1.90
2023-05-19T20:37:32.941Z,1.83
2023-05-19T20:40:02.174Z,2.10
2023-05-19T20:42:30.095Z,1.80
2023-05-19T20:44:58.422Z,2.00
2023-05-19T20:47:27.255Z,1.98
2023-05-19T20:49:56.631Z,2.20
2023-05-19T20:52:24.503Z,1.80
2023-05-19T20:54:53.536Z,2.22
2023-05-19T20:57:22.837Z,2.00
2023-05-19T20:59:51.032Z,2.15
2023-05-19T21:02:18.894Z,2.15
2023-05-19T21:04:47.004Z,2.22
2023-05-19T21:07:14.993Z,2.00
2023-05-19T21:09:46.381Z,2.00
2023-05-19T21:12:16.082Z,2.05
2023-05-19T21:14:45.326Z,1.90
2023-05-19T21:17:13.351Z,1.70
2023-05-19T21:19:41.269Z,2.03
2023-05-19T21:22:09.155Z,2.08
2023-05-19T21:24:37.007Z,1.98
2023-05-19T21:27:05.136Z,2.25
2023-05-19T21:29:32.902Z,1.77
2023-05-19T21:32:02.055Z,2.22
2023-05-19T21:34:29.931Z,2.20
2023-05-19T21:36:57.759Z,1.92
2023-05-19T21:39:25.576Z,1.92
2023-05-19T21:41:53.441Z,1.95
2023-05-19T21:44:21.903Z,1.70
2023-05-19T21:46:49.756Z,1.90
2023-05-19T21:49:19.863Z,2.10
2023-05-19T21:51:47.742Z,2.25
2023-05-19T21:54:15.648Z,1.85
2023-05-19T21:56:45.273Z,1.67
2023-05-19T21:59:13.085Z,2.00
2023-05-19T22:01:40.955Z,1.70
2023-05-19T22:04:09.422Z,2.00
2023-05-19T22:06:38.844Z,2.03
2023-05-19T22:09:06.787Z,2.53
2023-05-19T22:11:34.704Z,2.35
2023-05-19T22:14:02.656Z,2.10
2023-05-19T22:16:30.995Z,2.13
2023-05-19T22:18:58.867Z,1.98
2023-05-19T22:21:26.744Z,1.70
2023-05-19T22:23:55.963Z,1.90
2023-05-19T22:26:23.743Z,2.17
2023-05-19T22:28:51.916Z,2.00
2023-05-19T22:31:19.952Z,2.10
2023-05-19T22:33:47.846Z,2.05
2023-05-19T22:36:16.012Z,2.03
2023-05-19T22:38:43.854Z,2.10
2023-05-19T22:41:13.099Z,1.80
2023-05-19T22:43:40.988Z,1.98
2023-05-19T22:46:08.804Z,2.20
2023-05-19T22:48:36.644Z,2.10
2023-05-19T22:51:04.611Z,2.47
2023-05-19T22:53:32.396Z,2.00
2023-05-19T22:56:00.193Z,1.83
2023-05-19T22:58:33.518Z,2.13
2023-05-19T23:01:01.348Z,1.95
2023-05-19T23:03:29.156Z,2.00
2023-05-19T23:05:56.905Z,1.80
2023-05-19T23:08:24.883Z,2.50
2023-05-19T23:10:52.795Z,2.10
2023-05-19T23:13:20.601Z,2.08
2023-05-19T23:15:49.840Z,2.13
2023-05-19T23:18:17.602Z,2.10
2023-05-19T23:20:45.679Z,2.13
2023-05-19T23:23:13.431Z,2.35
2023-05-19T23:25:41.194Z,2.30
2023-05-19T23:28:10.369Z,2.30
2023-05-19T23:30:38.507Z,2.30
2023-05-19T23:33:07.961Z,1.95
2023-05-19T23:35:36.285Z,2.03
2023-05-19T23:38:04.353Z,2.03
2023-05-19T23:40:32.211Z,2.58
2023-05-19T23:43:00.123Z,1.98
2023-05-19T23:45:27.991Z,2.00
2023-05-19T23:47:55.885Z,2.45
2023-05-19T23:50:25.052Z,2.50
2023-05-19T23:52:53.009Z,2.20
2023-05-19T23:55:21.139Z,2.20
2023-05-19T23:57:48.889Z,2.20
